Time;durP1;ratioP1;P1;durP2;ratioP2;P2;SDS_P1;SDS_P2;PMS_P1;PMS_P2;Temp;Humidity;BMP_temperature;BMP_pressure;BME280_temperature;BME280_humidity;BME280_pressure;Samples;Min_cycle;Max_cycle;Signal;HPM_P1;HPM_P2
2022/12/17 13:07:03;;;;;;;132.70;52.53;;;;;;;-1.28;72.16;101242.16;2010850;85;33697;-63
2022/12/17 13:10:10;;;;;;;150.07;59.35;;;;;;;-1.32;71.97;101249.98;2079212;85;30439;-64
2022/12/17 13:13:20;;;;;;;152.65;56.73;;;;;;;-1.39;72.03;101249.88;2076682;85;28433;-63
2022/12/17 13:17:00;;;;;;;152.00;57.75;;;;;;;-1.37;72.23;101252.52;2079460;85;28674;-63
2022/12/17 13:20:03;;;;;;;142.10;57.78;;;;;;;-1.38;71.98;101259.53;2034181;85;30507;-63
2022/12/17 13:23:16;;;;;;;143.07;55.83;;;;;;;-1.46;71.80;101256.34;2050741;85;32935;-62
2022/12/17 13:26:44;;;;;;;155.90;55.85;;;;;;;-1.50;71.95;101264.61;2043022;85;30540;-63
2022/12/17 13:29:45;;;;;;;135.63;54.00;;;;;;;-1.55;71.94;101259.26;2038483;85;27730;-61
2022/12/17 13:33:15;;;;;;;127.90;52.50;;;;;;;-1.55;72.18;101267.14;2031791;86;29938;-62
2022/12/17 13:36:29;;;;;;;138.20;55.75;;;;;;;-1.52;72.05;101267.64;2066703;84;31441;-63
2022/12/17 13:39:41;;;;;;;135.72;53.80;;;;;;;-1.54;72.07;101269.36;2066231;84;33021;-63
2022/12/17 13:42:45;;;;;;;145.47;56.42;;;;;;;-1.57;71.92;101276.73;2062196;84;29498;-64
2022/12/17 13:45:47;;;;;;;145.15;56.23;;;;;;;-1.57;71.90;101282.44;2032196;86;28423;-66
2022/12/17 13:49:01;;;;;;;136.57;53.98;;;;;;;-1.58;71.88;101288.55;2066798;84;28653;-65
2022/12/17 13:52:17;;;;;;;157.63;59.73;;;;;;;-1.61;71.82;101298.59;2066495;84;31142;-62
2022/12/17 13:55:26;;;;;;;144.00;59.58;;;;;;;-1.63;71.84;101303.34;2059456;84;48228;-62
2022/12/17 13:58:32;;;;;;;145.30;60.12;;;;;;;-1.63;71.97;101308.59;2068467;84;30590;-61
2022/12/17 14:01:47;;;;;;;147.53;57.08;;;;;;;-1.62;72.02;101313.00;2071799;84;27630;-61
2022/12/17 14:04:52;;;;;;;142.25;57.53;;;;;;;-1.63;71.86;101316.48;2063281;84;28662;-65
2022/12/17 14:07:56;;;;;;;137.50;54.77;;;;;;;-1.66;71.85;101317.33;2072088;84;31032;-64
2022/12/17 14:14:24;;;;;;;153.40;57.30;;;;;;;-1.80;71.50;101322.33;2071284;84;30264;-62
2022/12/17 14:17:32;;;;;;;135.07;54.20;;;;;;;-1.89;71.55;101330.05;2028697;86;27910;-64
2022/12/17 14:20:35;;;;;;;128.55;49.20;;;;;;;-1.97;71.70;101333.85;2010882;86;28043;-63
2022/12/17 14:23:37;;;;;;;122.82;45.85;;;;;;;-2.01;71.64;101345.14;2020633;86;32211;-63
2022/12/17 14:27:00;;;;;;;126.90;51.48;;;;;;;-2.08;71.58;101352.02;2010688;87;34148;-66
2022/12/17 14:30:17;;;;;;;114.62;47.48;;;;;;;-2.12;71.67;101358.50;2011846;87;29400;-64
2022/12/17 14:33:32;;;;;;;125.90;46.70;;;;;;;-2.17;71.75;101355.35;2010734;86;27740;-63
2022/12/17 14:36:40;;;;;;;119.02;47.60;;;;;;;-2.19;71.75;101362.75;2011733;87;28648;-62
2022/12/17 14:39:46;;;;;;;118.35;45.88;;;;;;;-2.25;71.82;101369.17;2008936;87;31379;-65
2022/12/17 14:42:50;;;;;;;120.30;45.75;;;;;;;-2.28;71.78;101380.51;2010910;87;32989;-66
2022/12/17 14:49:26;;;;;;;119.10;44.53;;;;;;;-2.39;71.69;101392.09;2000538;87;27652;-65
2022/12/17 14:52:42;;;;;;;122.65;44.18;;;;;;;-2.46;71.74;101391.08;1898375;92;27871;-62
2022/12/17 14:55:58;;;;;;;128.90;46.73;;;;;;;-2.49;71.83;101404.13;1886102;92;31931;-66
2022/12/17 14:59:01;;;;;;;119.93;47.13;;;;;;;-2.49;72.02;101412.44;1902378;91;33917;-65
2022/12/17 15:02:24;;;;;;;133.78;47.17;;;;;;;-2.51;72.09;101408.89;1905918;91;30175;-64
2022/12/17 15:05:29;;;;;;;121.07;45.38;;;;;;;-2.52;72.11;101415.85;1905872;91;27783;-65
2022/12/17 15:08:36;;;;;;;120.60;42.78;;;;;;;-2.52;72.05;101412.36;1906205;91;28659;-66
2022/12/17 15:11:38;;;;;;;111.92;42.58;;;;;;;-2.56;72.08;101414.45;1904210;91;32000;-63
2022/12/17 15:14:40;;;;;;;129.23;47.80;;;;;;;-2.57;72.15;101421.85;1906568;91;33366;-64
2022/12/17 15:17:42;;;;;;;123.05;47.40;;;;;;;-2.57;72.18;101418.82;1906078;91;30511;-62
2022/12/17 15:20:45;;;;;;;129.05;47.30;;;;;;;-2.60;72.20;101430.11;1906391;91;27947;-64
2022/12/17 15:23:48;;;;;;;115.70;43.42;;;;;;;-2.61;72.35;101421.78;1871679;93;28681;-63
2022/12/17 15:26:53;;;;;;;125.22;44.95;;;;;;;-2.60;72.33;101430.55;1871743;93;31276;-63
2022/12/17 15:29:58;;;;;;;122.15;46.40;;;;;;;-2.62;72.32;101434.43;1871242;93;33033;-62
2022/12/17 15:32:59;;;;;;;116.60;42.48;;;;;;;-2.61;72.46;101429.65;1871000;93;29417;-63
2022/12/17 15:36:02;;;;;;;103.95;40.52;;;;;;;-2.59;72.57;101437.57;1871464;93;27800;-64
2022/12/17 15:39:05;;;;;;;117.97;43.38;;;;;;;-2.57;72.55;101437.19;1871469;93;29940;-64
2022/12/17 15:45:30;;;;;;;119.87;44.38;;;;;;;-2.53;72.56;101453.87;1840943;93;33528;-64
2022/12/17 15:48:32;;;;;;;107.60;42.05;;;;;;;-2.54;72.52;101458.66;1872100;93;29985;-63
2022/12/17 15:51:34;;;;;;;112.05;42.53;;;;;;;-2.56;72.55;101457.73;1871862;93;28517;-63
2022/12/17 15:54:35;;;;;;;103.85;39.67;;;;;;;-2.54;72.64;101458.66;1887351;90;28554;-64
2022/12/17 15:57:37;;;;;;;122.80;41.53;;;;;;;-2.53;72.66;101457.36;1957552;89;32293;-62
2022/12/17 16:00:39;;;;;;;116.03;46.75;;;;;;;-2.51;72.69;101459.60;1976114;88;32373;-63
2022/12/17 16:03:41;;;;;;;160.15;61.45;;;;;;;-2.50;72.75;101454.82;1980666;88;29762;-63
2022/12/17 16:06:43;;;;;;;133.10;50.60;;;;;;;-2.47;72.77;101467.11;2013679;87;27834;-64
2022/12/17 16:09:45;;;;;;;126.65;48.98;;;;;;;-2.48;72.63;101466.69;2013476;87;29906;-65
2022/12/17 16:12:47;;;;;;;115.52;44.70;;;;;;;-2.49;72.72;101468.84;2002606;87;32099;-63
2022/12/17 16:15:57;;;;;;;119.08;43.33;;;;;;;-2.50;72.64;101474.50;2023406;87;34360;-65
2022/12/17 16:19:00;;;;;;;108.00;45.12;;;;;;;-2.55;72.61;101487.92;1990638;87;29769;-63
2022/12/17 16:22:03;;;;;;;121.95;45.52;;;;;;;-2.56;72.83;101486.14;2011113;88;27635;-63
2022/12/17 16:25:06;;;;;;;106.40;45.33;;;;;;;-2.54;72.87;101490.14;2020282;86;28866;-64
2022/12/17 16:28:08;;;;;;;112.10;44.90;;;;;;;-2.55;72.84;101492.30;2007454;88;31827;-64
2022/12/17 16:31:13;;;;;;;107.22;42.30;;;;;;;-2.54;72.92;101488.83;1980835;89;33296;-63
2022/12/17 16:34:16;;;;;;;111.65;41.18;;;;;;;-2.55;72.98;101490.98;1981164;89;30605;-63
2022/12/17 16:37:18;;;;;;;111.35;41.95;;;;;;;-2.54;72.96;101504.56;2008107;88;27606;-63
2022/12/17 16:40:21;;;;;;;105.05;40.55;;;;;;;-2.56;73.08;101504.52;2043095;87;29069;-64
2022/12/17 16:43:24;;;;;;;103.90;41.25;;;;;;;-2.54;73.06;101519.00;2006854;88;31490;-63
2022/12/17 16:46:36;;;;;;;99.03;38.60;;;;;;;-2.54;73.10;101519.88;1982674;89;32955;-64
2022/12/17 16:49:38;;;;;;;107.12;41.28;;;;;;;-2.54;73.10;101524.24;1982655;89;29351;-62
2022/12/17 16:52:40;;;;;;;107.03;40.23;;;;;;;-2.55;73.20;101522.03;1982739;89;27965;-63
2022/12/17 16:55:44;;;;;;;115.15;44.85;;;;;;;-2.53;73.20;101523.40;1982736;89;28326;-65
2022/12/17 16:58:49;;;;;;;97.88;39.73;;;;;;;-2.53;73.18;101533.89;1987249;88;33014;-64
2022/12/17 17:01:51;;;;;;;102.25;39.38;;;;;;;-2.54;73.20;101529.05;2003877;87;33444;-64
2022/12/17 17:04:53;;;;;;;117.42;41.68;;;;;;;-2.56;73.25;101534.68;2012415;88;29429;-62
2022/12/17 17:07:56;;;;;;;102.20;39.15;;;;;;;-2.56;73.29;101533.81;2013049;88;27701;-64
2022/12/17 17:11:20;;;;;;;107.80;41.18;;;;;;;-2.57;73.23;101531.63;2030886;87;28208;-64
2022/12/17 17:14:22;;;;;;;171.25;54.65;;;;;;;-2.57;73.31;101533.34;2030385;87;31042;-64
2022/12/17 17:17:24;;;;;;;130.43;49.75;;;;;;;-2.56;73.40;101532.05;2030441;87;33775;-64
2022/12/17 17:20:26;;;;;;;109.40;42.35;;;;;;;-2.54;73.42;101540.86;2030973;87;29674;-64
2022/12/17 17:23:28;;;;;;;106.10;43.73;;;;;;;-2.52;73.33;101547.47;2031071;87;27491;-64
2022/12/17 17:26:31;;;;;;;101.60;40.67;;;;;;;-2.55;73.34;101547.39;2030935;87;29559;-65
2022/12/17 17:29:33;;;;;;;100.87;38.15;;;;;;;-2.53;73.34;101553.13;2030955;87;31375;-64
2022/12/17 17:32:35;;;;;;;97.20;38.17;;;;;;;-2.52;73.35;101557.53;2031103;87;33443;-64
2022/12/17 17:35:37;;;;;;;95.22;36.95;;;;;;;-2.50;73.39;101560.20;2032957;87;29659;-64
2022/12/17 17:38:40;;;;;;;96.80;37.83;;;;;;;-2.50;73.39;101559.77;2032961;87;27709;-64
2022/12/17 17:41:42;;;;;;;107.35;37.25;;;;;;;-2.49;73.28;101575.11;2012746;87;29456;-64
2022/12/17 17:44:43;;;;;;;100.82;36.83;;;;;;;-2.51;73.25;101576.80;2070635;85;30491;-64
2022/12/17 17:47:45;;;;;;;92.95;38.35;;;;;;;-2.51;73.29;101580.73;2070751;86;32883;-63
2022/12/17 17:51:01;;;;;;;105.00;40.65;;;;;;;-2.54;73.19;101579.34;2069197;85;30551;-64
2022/12/17 17:54:04;;;;;;;98.22;41.40;;;;;;;-2.56;73.27;101583.22;2070834;86;27758;-65
2022/12/17 17:57:06;;;;;;;114.67;44.67;;;;;;;-2.57;73.33;101580.16;2070590;86;28032;-64
2022/12/17 18:00:11;;;;;;;98.82;38.53;;;;;;;-2.53;73.42;101590.30;2070457;86;31486;-65
2022/12/17 18:03:13;;;;;;;95.67;38.85;;;;;;;-2.54;73.36;101586.77;2070314;86;33304;-65
2022/12/17 18:06:15;;;;;;;98.97;38.05;;;;;;;-2.51;73.48;101592.55;2070369;86;30525;-65
2022/12/17 18:09:16;;;;;;;98.42;35.23;;;;;;;-2.49;73.45;101590.84;2062519;86;27714;-65
2022/12/17 18:15:25;;;;;;;95.30;35.10;;;;;;;-2.50;73.25;101595.63;1993247;89;32305;-63
2022/12/17 18:18:27;;;;;;;89.70;33.25;;;;;;;-2.49;73.33;101599.59;1993286;89;32807;-64
2022/12/17 18:21:29;;;;;;;100.27;38.83;;;;;;;-2.49;73.30;101607.91;1938562;91;29600;-65
2022/12/17 18:24:31;;;;;;;86.72;33.70;;;;;;;-2.50;73.25;101607.44;1933311;90;27833;-65
2022/12/17 18:27:33;;;;;;;85.25;35.05;;;;;;;-2.50;73.25;101610.94;1962461;90;28704;-64
2022/12/17 18:30:37;;;;;;;87.60;32.42;;;;;;;-2.48;73.24;101616.23;1962482;90;32276;-64
2022/12/17 18:33:43;;;;;;;86.50;33.50;;;;;;;-2.50;73.25;101629.30;1962367;90;34198;-65
2022/12/17 18:36:46;;;;;;;81.65;29.75;;;;;;;-2.51;73.28;101630.58;1962746;90;29550;-64
2022/12/17 18:39:48;;;;;;;87.97;39.60;;;;;;;-2.53;73.21;101635.77;1962373;90;27692;-65
2022/12/17 18:46:11;;;;;;;91.70;32.80;;;;;;;-2.54;73.24;101649.73;1962375;90;32284;-65
2022/12/17 18:49:16;;;;;;;77.82;31.33;;;;;;;-2.53;73.20;101647.58;1962628;90;33475;-65
2022/12/17 18:52:18;;;;;;;84.40;32.78;;;;;;;-2.56;73.23;101643.55;1984813;87;29390;-65
2022/12/17 18:55:20;;;;;;;90.62;35.43;;;;;;;-2.56;73.19;101653.18;2033171;87;27701;-64
2022/12/17 18:58:22;;;;;;;81.20;32.95;;;;;;;-2.54;73.34;101655.42;2012824;88;29241;-64
2022/12/17 19:01:27;;;;;;;86.15;32.28;;;;;;;-2.52;73.37;101658.98;2012435;87;32211;-64
2022/12/17 19:04:31;;;;;;;;;;;;;;;-2.51;73.38;101670.81;2015099;88;33149;-65
2022/12/17 19:07:33;;;;;;;74.70;30.45;;;;;;;-2.51;73.26;101672.56;2033220;87;29529;-65
2022/12/17 19:10:36;;;;;;;82.22;32.95;;;;;;;-2.54;73.24;101673.34;2012952;88;27695;-64
2022/12/17 19:13:38;;;;;;;73.55;29.02;;;;;;;-2.54;73.22;101680.34;2032817;87;29063;-66
2022/12/17 19:16:40;;;;;;;80.22;31.07;;;;;;;-2.57;73.23;101688.13;2032386;87;32261;-63
2022/12/17 19:19:42;;;;;;;77.75;27.82;;;;;;;-2.58;73.36;101694.22;2033170;87;33735;-63
2022/12/17 19:22:44;;;;;;;72.22;29.05;;;;;;;-2.64;73.17;101687.08;2032977;87;29852;-67
2022/12/17 19:25:46;;;;;;;66.47;26.25;;;;;;;-2.68;73.22;101693.98;2032638;87;28343;-66
2022/12/17 19:28:51;;;;;;;69.17;26.12;;;;;;;-2.72;73.17;101698.67;2032689;87;30001;-65
2022/12/17 19:31:53;;;;;;;75.17;29.00;;;;;;;-2.76;73.20;101705.58;2033000;87;31023;-66
2022/12/17 19:34:55;;;;;;;74.65;27.13;;;;;;;-2.80;73.28;101710.27;2032761;87;33409;-66
2022/12/17 19:37:57;;;;;;;71.45;27.45;;;;;;;-2.82;73.30;101713.27;2032517;87;30533;-65
2022/12/17 19:41:11;;;;;;;71.25;27.62;;;;;;;-2.87;73.29;101712.23;2032681;86;27805;-68
2022/12/17 19:44:15;;;;;;;70.37;27.87;;;;;;;-2.88;73.32;101723.56;2032709;87;28669;-69
2022/12/17 19:47:16;;;;;;;73.30;27.53;;;;;;;-2.94;73.19;101716.85;2033227;87;32346;-65
2022/12/17 19:50:19;;;;;;;65.10;26.82;;;;;;;-2.95;73.32;101721.63;2032622;87;34210;-66
2022/12/17 19:53:25;;;;;;;73.10;27.70;;;;;;;-2.92;73.51;101725.66;2012241;87;30260;-69
2022/12/17 19:56:29;;;;;;;73.17;27.00;;;;;;;-2.91;73.51;101723.50;2070305;85;27704;-71
2022/12/17 19:59:31;;;;;;;65.47;26.15;;;;;;;-2.92;73.39;101730.46;2048993;85;29749;-68
2022/12/17 20:02:33;;;;;;;64.03;24.75;;;;;;;-2.95;73.46;101745.23;2067260;85;32205;-68
2022/12/17 20:05:35;;;;;;;70.52;28.95;;;;;;;-2.97;73.34;101753.03;2067817;85;33161;-67
2022/12/17 20:08:38;;;;;;;77.27;30.12;;;;;;;-2.97;73.40;101752.16;2054382;84;29766;-64
2022/12/17 20:11:40;;;;;;;64.85;25.75;;;;;;;-2.97;73.50;101754.34;2067352;84;27775;-63
2022/12/17 20:14:42;;;;;;;61.83;25.32;;;;;;;-2.98;73.36;101756.52;2066295;84;29485;-65
2022/12/17 20:17:43;;;;;;;73.28;31.12;;;;;;;-3.00;73.31;101759.92;2069029;84;32307;-65
2022/12/17 20:20:45;;;;;;;77.53;30.40;;;;;;;-2.99;73.43;101764.33;2069109;84;34237;-65
2022/12/17 20:23:49;;;;;;;75.45;29.52;;;;;;;-3.01;73.36;101775.18;2068786;84;29453;-65
2022/12/17 20:26:53;;;;;;;64.27;26.93;;;;;;;-3.02;73.36;101775.63;2064718;84;27748;-65
2022/12/17 20:29:55;;;;;;;66.57;27.37;;;;;;;-3.05;73.40;101776.39;2069255;84;28686;-65
2022/12/17 20:32:57;;;;;;;79.67;29.50;;;;;;;-3.05;73.45;101784.70;2067934;84;32246;-67
2022/12/17 20:36:07;;;;;;;69.15;27.82;;;;;;;-3.07;73.31;101789.91;2069183;84;34042;-67
2022/12/17 20:39:10;;;;;;;65.15;26.48;;;;;;;-3.17;73.25;101793.50;2048515;84;30777;-68
2022/12/17 20:42:16;;;;;;;63.23;26.17;;;;;;;-3.26;73.27;101794.10;2049581;84;27986;-68
2022/12/17 20:45:18;;;;;;;72.58;28.70;;;;;;;-3.36;73.36;101797.72;2071929;84;29973;-65
2022/12/17 20:48:22;;;;;;;71.28;28.02;;;;;;;-3.42;73.41;101801.48;2069124;84;32086;-63
2022/12/17 20:51:25;;;;;;;83.45;33.00;;;;;;;-3.48;73.52;101810.44;2066491;84;33825;-65
2022/12/17 20:54:27;;;;;;;78.35;32.73;;;;;;;-3.54;73.55;101810.22;2069377;84;29494;-66
2022/12/17 20:57:28;;;;;;;82.20;33.63;;;;;;;-3.62;73.67;101813.90;2049747;84;27735;-65
2022/12/17 21:00:31;;;;;;;84.30;34.00;;;;;;;-3.65;73.67;101824.30;2069141;84;29938;-65
2022/12/17 21:03:34;;;;;;;90.87;36.75;;;;;;;-3.69;73.74;101825.91;2069095;84;32133;-66
2022/12/17 21:06:39;;;;;;;95.30;36.38;;;;;;;-3.70;73.87;101833.28;2069452;84;32980;-64
2022/12/17 21:09:41;;;;;;;96.60;36.68;;;;;;;-3.70;73.84;101827.17;2066032;84;29366;-64
2022/12/17 21:16:16;;;;;;;94.85;37.35;;;;;;;-3.74;73.85;101829.21;2059408;84;29999;-65
2022/12/17 21:19:19;;;;;;;96.05;36.35;;;;;;;-3.75;73.93;101829.64;2068816;84;31148;-65
2022/12/17 21:22:20;;;;;;;94.62;35.33;;;;;;;-3.76;73.98;101834.41;2041520;85;34113;-64
2022/12/17 21:25:24;;;;;;;94.72;36.63;;;;;;;-3.76;74.00;101835.72;2049959;85;30512;-65
2022/12/17 21:28:26;;;;;;;97.35;37.10;;;;;;;-3.79;73.91;101842.16;2039031;85;27620;-66
2022/12/17 21:31:36;;;;;;;101.97;38.05;;;;;;;-3.80;73.89;101856.52;2040398;85;29127;-66
2022/12/17 21:34:39;;;;;;;91.53;34.83;;;;;;;-3.85;73.87;101857.23;2048214;85;32304;-65
2022/12/17 21:37:41;;;;;;;111.37;45.92;;;;;;;-3.89;73.95;101850.54;2049655;85;33016;-66
2022/12/17 21:40:42;;;;;;;108.47;42.67;;;;;;;-3.88;74.12;101856.22;2069007;84;29412;-65
2022/12/17 21:43:44;;;;;;;95.53;36.17;;;;;;;-3.89;74.12;101860.58;2069159;84;27994;-65
2022/12/17 21:46:46;;;;;;;95.35;35.88;;;;;;;-3.91;74.11;101862.25;2069431;84;30131;-66
2022/12/17 21:49:48;;;;;;;105.20;38.78;;;;;;;-3.91;74.08;101867.92;2069444;84;31780;-67
2022/12/17 21:52:50;;;;;;;99.03;36.33;;;;;;;-3.94;74.14;101871.73;2067954;86;32979;-65
2022/12/17 21:55:54;;;;;;;89.65;36.70;;;;;;;-3.93;74.19;101873.52;2067696;86;29324;-65
2022/12/17 21:59:00;;;;;;;101.92;37.15;;;;;;;-3.92;74.20;101871.38;2067791;86;27765;-64
2022/12/17 22:02:02;;;;;;;102.92;38.17;;;;;;;-3.94;74.06;101875.22;2056625;86;29568;-66
2022/12/17 22:05:05;;;;;;;108.60;42.15;;;;;;;-3.97;74.02;101873.83;2030477;87;31462;-69
2022/12/17 22:08:08;;;;;;;122.17;45.20;;;;;;;-3.99;74.05;101884.23;2030460;87;32990;-66
2022/12/17 22:11:16;;;;;;;120.55;43.42;;;;;;;-3.98;74.15;101877.28;1977615;90;29753;-65
2022/12/17 22:14:18;;;;;;;113.83;42.08;;;;;;;-3.97;74.20;101879.06;1977743;90;27616;-64
2022/12/17 22:17:20;;;;;;;110.72;43.08;;;;;;;-3.98;74.23;101882.09;1977068;90;28626;-65
2022/12/17 22:20:23;;;;;;;119.97;44.65;;;;;;;-3.98;74.25;101880.78;1977448;90;31845;-66
2022/12/17 22:23:25;;;;;;;118.62;49.18;;;;;;;-3.98;74.16;101886.02;1976996;88;34259;-67
2022/12/17 22:26:26;;;;;;;113.88;44.15;;;;;;;-3.97;74.24;101892.16;1977137;90;29952;-67
2022/12/17 22:32:58;;;;;;;101.50;41.08;;;;;;;-3.98;74.11;101892.98;1977334;88;30066;-64
2022/12/17 22:36:01;;;;;;;82.60;32.50;;;;;;;-4.00;74.17;101885.49;1977434;90;31413;-63
2022/12/17 22:39:08;;;;;;;56.77;24.00;;;;;;;-4.02;74.04;101891.97;1977239;90;35347;-64
2022/12/17 22:45:30;;;;;;;87.17;34.63;;;;;;;-4.04;74.14;101893.63;1977667;90;27670;-63
2022/12/17 22:48:33;;;;;;;93.75;35.60;;;;;;;-4.04;74.19;101912.39;1977527;90;29230;-64
2022/12/17 22:51:34;;;;;;;99.15;37.50;;;;;;;-4.05;74.19;101907.55;2000678;88;31415;-65
2022/12/17 22:54:36;;;;;;;91.05;34.05;;;;;;;-4.04;74.26;101905.84;2012493;87;33403;-64
2022/12/17 22:57:38;;;;;;;94.58;37.90;;;;;;;-4.02;74.34;101909.41;2012690;88;29539;-64
2022/12/17 23:00:41;;;;;;;85.77;35.65;;;;;;;-4.01;74.25;101920.36;2011662;88;27673;-65
2022/12/17 23:03:43;;;;;;;85.17;35.13;;;;;;;-4.01;74.37;101918.62;2012192;88;28875;-65
2022/12/17 23:06:45;;;;;;;95.45;39.60;;;;;;;-4.00;74.26;101920.84;2012286;88;32342;-64
2022/12/17 23:09:47;;;;;;;85.17;35.83;;;;;;;-4.01;74.31;101921.23;2012614;88;33074;-64
2022/12/17 23:12:49;;;;;;;87.33;32.63;;;;;;;-4.00;74.35;101923.45;2012314;88;30204;-63
2022/12/17 23:15:51;;;;;;;83.52;32.93;;;;;;;-4.02;74.21;101918.58;2012938;88;28321;-63
2022/12/17 23:18:55;;;;;;;89.35;34.53;;;;;;;-4.02;74.37;101920.76;2012396;88;29365;-64
2022/12/17 23:21:57;;;;;;;80.90;33.05;;;;;;;-4.01;74.38;101918.62;2012396;88;31862;-68
2022/12/17 23:24:58;;;;;;;77.95;30.37;;;;;;;-4.00;74.40;101921.70;2012313;88;33172;-63
2022/12/17 23:28:00;;;;;;;70.08;28.42;;;;;;;-4.01;74.35;101918.62;2012250;88;29338;-63
2022/12/17 23:31:08;;;;;;;78.90;29.42;;;;;;;-3.99;74.41;101935.27;2013012;88;27995;-63
2022/12/17 23:34:10;;;;;;;68.30;28.62;;;;;;;-3.99;74.33;101941.81;2012339;88;29474;-64
2022/12/17 23:37:11;;;;;;;70.95;30.27;;;;;;;-4.02;74.24;101943.44;2033452;87;31391;-63
2022/12/17 23:40:14;;;;;;;72.92;30.43;;;;;;;-4.05;74.29;101948.55;2032589;87;34331;-64
2022/12/17 23:43:15;;;;;;;76.05;29.75;;;;;;;-4.04;74.36;101953.83;2032739;87;30339;-63
2022/12/17 23:46:18;;;;;;;73.02;28.95;;;;;;;-4.06;74.32;101948.08;2012746;88;27731;-63
2022/12/17 23:49:19;;;;;;;73.95;29.67;;;;;;;-4.07;74.36;101955.05;2070488;86;28632;-63
2022/12/17 23:52:21;;;;;;;71.35;29.18;;;;;;;-4.07;74.35;101956.77;2032775;87;31912;-65
2022/12/17 23:55:22;;;;;;;76.75;30.62;;;;;;;-4.13;74.28;101949.58;2012521;88;33055;-64
2022/12/17 23:58:24;;;;;;;64.30;26.93;;;;;;;-4.15;74.36;101961.31;2012543;88;30202;-64
